createdAt,value
2022-11-05T00:00:02.830Z,99.40
2022-11-05T00:02:49.947Z,99.57
2022-11-05T00:05:34.881Z,99.58
2022-11-05T00:08:22.888Z,99.79
2022-11-05T00:10:49.659Z,99.68
2022-11-05T00:13:34.618Z,100.00
2022-11-05T00:16:19.424Z,99.91
2022-11-05T00:19:05.767Z,100.00
2022-11-05T00:21:52.649Z,99.97
2022-11-05T00:24:37.509Z,100.00
2022-11-05T00:27:04.222Z,100.00
2022-11-05T00:29:30.595Z,100.00
2022-11-05T00:31:57.568Z,100.00
2022-11-05T00:34:24.206Z,100.00
2022-11-05T00:36:50.627Z,100.00
2022-11-05T00:39:17.093Z,100.00
2022-11-05T00:41:43.476Z,100.00
2022-11-05T00:44:28.656Z,100.00
2022-11-05T00:47:15.015Z,100.00
2022-11-05T00:49:41.409Z,100.00
2022-11-05T00:52:26.443Z,100.00
2022-11-05T00:54:52.867Z,100.00
2022-11-05T00:57:19.226Z,100.00
2022-11-05T00:59:45.617Z,100.00
2022-11-05T01:02:12.665Z,100.00
2022-11-05T01:04:39.195Z,100.00
2022-11-05T01:07:05.560Z,100.00
2022-11-05T01:09:32.015Z,100.00
2022-11-05T01:11:58.374Z,100.00
2022-11-05T01:14:24.759Z,100.00
2022-11-05T01:16:51.105Z,100.00
2022-11-05T01:19:17.473Z,100.00
2022-11-05T01:21:43.847Z,100.00
2022-11-05T01:24:10.716Z,100.00
2022-11-05T01:26:37.096Z,100.00
2022-11-05T01:29:03.634Z,100.00
2022-11-05T01:31:30.069Z,100.00
2022-11-05T01:33:56.547Z,100.00
2022-11-05T01:36:23.006Z,100.00
2022-11-05T01:38:49.401Z,100.00
2022-11-05T01:41:15.765Z,100.00
2022-11-05T01:43:54.983Z,100.00
2022-11-05T01:46:26.422Z,100.00
2022-11-05T01:49:00.132Z,100.00
2022-11-05T01:51:29.211Z,100.00
2022-11-05T01:54:06.529Z,100.00
2022-11-05T01:56:38.833Z,100.00
2022-11-05T01:59:13.828Z,100.00
2022-11-05T02:01:40.467Z,100.00
2022-11-05T02:04:11.552Z,100.00
2022-11-05T02:06:46.093Z,100.00
2022-11-05T02:09:14.865Z,100.00
2022-11-05T02:11:41.332Z,100.00
2022-11-05T02:14:07.738Z,100.00
2022-11-05T02:16:43.628Z,100.00
2022-11-05T02:19:31.138Z,100.00
2022-11-05T02:22:36.541Z,100.00
2022-11-05T02:25:23.180Z,100.00
2022-11-05T02:28:09.599Z,100.00
2022-11-05T02:31:00.947Z,100.00
2022-11-05T02:33:35.931Z,100.00
2022-11-05T02:36:02.312Z,100.00
2022-11-05T02:38:40.778Z,100.00
2022-11-05T02:41:31.892Z,100.00
2022-11-05T02:44:33.784Z,100.00
2022-11-05T02:47:17.060Z,100.00
2022-11-05T02:49:57.867Z,100.00
2022-11-05T02:52:55.542Z,100.00
2022-11-05T02:55:37.245Z,100.00
2022-11-05T02:58:05.103Z,100.00
2022-11-05T03:00:48.830Z,100.00
2022-11-05T03:03:21.254Z,100.00
2022-11-05T03:06:14.899Z,100.00
2022-11-05T03:08:49.975Z,100.00
2022-11-05T03:11:23.576Z,100.00
2022-11-05T03:14:01.774Z,100.00
2022-11-05T03:16:42.163Z,100.00
2022-11-05T03:19:27.430Z,100.00
2022-11-05T03:22:00.861Z,100.00
2022-11-05T03:24:32.244Z,100.00
2022-11-05T03:27:05.042Z,100.00
2022-11-05T03:29:41.142Z,100.00
2022-11-05T03:32:10.687Z,100.00
2022-11-05T03:34:46.332Z,100.00
2022-11-05T03:37:13.739Z,100.00
2022-11-05T03:39:47.041Z,100.00
2022-11-05T03:42:17.562Z,100.00
2022-11-05T03:44:54.177Z,100.00
2022-11-05T03:47:25.681Z,100.00
2022-11-05T03:50:19.884Z,100.00
2022-11-05T03:52:52.625Z,100.00
2022-11-05T03:55:25.075Z,100.00
2022-11-05T03:57:54.983Z,100.00
2022-11-05T04:00:22.331Z,100.00
2022-11-05T04:02:48.880Z,100.00
2022-11-05T04:05:15.609Z,100.00
2022-11-05T04:08:03.298Z,100.00
2022-11-05T04:11:05.394Z,100.00
2022-11-05T04:13:33.233Z,100.00
2022-11-05T04:16:17.984Z,100.00
2022-11-05T04:18:44.437Z,100.00
2022-11-05T04:21:30.043Z,100.00
2022-11-05T04:24:08.694Z,100.00
2022-11-05T04:26:36.991Z,100.00
2022-11-05T04:29:22.100Z,100.00
2022-11-05T04:31:48.782Z,100.00
2022-11-05T04:34:16.147Z,100.00
2022-11-05T04:36:43.038Z,100.00
2022-11-05T04:39:09.406Z,100.00
2022-11-05T04:41:35.941Z,100.00
2022-11-05T04:44:02.546Z,100.00
2022-11-05T04:46:28.980Z,100.00
2022-11-05T04:48:55.331Z,100.00
2022-11-05T04:51:21.701Z,100.00
2022-11-05T04:53:48.068Z,100.00
2022-11-05T04:56:25.715Z,100.00
2022-11-05T04:58:52.632Z,100.00
2022-11-05T05:01:22.518Z,100.00
2022-11-05T05:03:50.654Z,100.00
2022-11-05T05:06:18.504Z,100.00
2022-11-05T05:08:47.065Z,100.00
2022-11-05T05:11:17.669Z,100.00
2022-11-05T05:13:44.460Z,100.00
2022-11-05T05:16:27.096Z,100.00
2022-11-05T05:18:54.065Z,100.00
2022-11-05T05:21:40.915Z,100.00
2022-11-05T05:24:12.860Z,100.00
2022-11-05T05:26:42.381Z,100.00
2022-11-05T05:29:10.172Z,100.00
2022-11-05T05:31:36.839Z,100.00
2022-11-05T05:34:04.421Z,100.00
2022-11-05T05:36:31.161Z,100.00
2022-11-05T05:38:57.591Z,100.00
2022-11-05T05:41:24.660Z,100.00
2022-11-05T05:43:51.129Z,100.00
2022-11-05T05:46:19.204Z,100.00
2022-11-05T05:48:50.107Z,100.00
2022-11-05T05:51:17.459Z,100.00
2022-11-05T05:53:44.239Z,100.00
2022-11-05T05:56:11.238Z,100.00
2022-11-05T05:58:39.175Z,100.00
2022-11-05T06:01:11.013Z,100.00
2022-11-05T06:03:40.629Z,100.00
2022-11-05T06:06:09.478Z,100.00
2022-11-05T06:08:36.539Z,100.00
2022-11-05T06:11:03.931Z,100.00
2022-11-05T06:13:31.099Z,100.00
2022-11-05T06:16:02.472Z,100.00
2022-11-05T06:18:30.118Z,100.00
2022-11-05T06:21:01.762Z,100.00
2022-11-05T06:23:30.878Z,100.00
2022-11-05T06:26:03.036Z,100.00
2022-11-05T06:28:29.583Z,100.00
2022-11-05T06:30:59.463Z,100.00
2022-11-05T06:33:26.618Z,100.00
2022-11-05T06:35:53.955Z,100.00
2022-11-05T06:38:21.010Z,100.00
2022-11-05T06:40:47.414Z,100.00
2022-11-05T06:43:14.144Z,100.00
2022-11-05T06:45:40.834Z,100.00
2022-11-05T06:48:07.371Z,100.00
2022-11-05T06:50:33.920Z,100.00
2022-11-05T06:53:02.936Z,100.00
2022-11-05T06:55:30.519Z,100.00
2022-11-05T06:57:57.299Z,100.00
2022-11-05T07:00:24.433Z,100.00
2022-11-05T07:02:50.797Z,100.00
2022-11-05T07:05:17.850Z,100.00
2022-11-05T07:07:45.181Z,100.00
2022-11-05T07:10:14.740Z,100.00
2022-11-05T07:12:41.472Z,100.00
2022-11-05T07:15:08.703Z,100.00
2022-11-05T07:17:35.162Z,100.00
2022-11-05T07:20:01.625Z,100.00
2022-11-05T07:22:27.986Z,100.00
2022-11-05T07:24:54.351Z,100.00
2022-11-05T07:27:21.577Z,100.00
2022-11-05T07:29:47.942Z,100.00
2022-11-05T07:32:14.432Z,100.00
2022-11-05T07:34:41.147Z,100.00
2022-11-05T07:37:07.582Z,100.00
2022-11-05T07:39:33.988Z,100.00
2022-11-05T07:42:00.459Z,100.00
2022-11-05T07:44:32.492Z,100.00
2022-11-05T07:46:58.924Z,100.00
2022-11-05T07:49:25.968Z,100.00
2022-11-05T07:51:52.740Z,100.00
2022-11-05T07:54:19.121Z,100.00
2022-11-05T07:56:47.163Z,100.00
2022-11-05T07:59:13.561Z,100.00
2022-11-05T08:01:40.189Z,100.00
2022-11-05T08:04:06.774Z,100.00
2022-11-05T08:06:33.153Z,100.00
2022-11-05T08:08:59.524Z,100.00
2022-11-05T08:11:25.926Z,100.00
2022-11-05T08:13:52.289Z,100.00
2022-11-05T08:16:18.671Z,100.00
2022-11-05T08:18:45.661Z,100.00
2022-11-05T08:21:12.341Z,100.00
2022-11-05T08:23:39.268Z,100.00
2022-11-05T08:26:05.757Z,100.00
2022-11-05T08:28:32.132Z,100.00
2022-11-05T08:30:58.609Z,100.00
2022-11-05T08:33:25.689Z,100.00
2022-11-05T08:35:52.238Z,100.00
2022-11-05T08:38:19.930Z,100.00
2022-11-05T08:40:54.954Z,100.00
2022-11-05T08:43:21.444Z,100.00
2022-11-05T08:45:47.865Z,100.00
2022-11-05T08:48:16.313Z,100.00
2022-11-05T08:50:44.776Z,100.00
2022-11-05T08:53:12.493Z,100.00
2022-11-05T08:55:39.255Z,100.00
2022-11-05T08:58:10.572Z,100.00
2022-11-05T09:00:37.479Z,100.00
2022-11-05T09:03:06.108Z,100.00
2022-11-05T09:05:38.141Z,100.00
2022-11-05T09:08:06.038Z,100.00
2022-11-05T09:10:32.890Z,100.00
2022-11-05T09:12:59.315Z,100.00
2022-11-05T09:15:26.237Z,100.00
2022-11-05T09:17:52.733Z,100.00
2022-11-05T09:20:19.412Z,100.00
2022-11-05T09:22:46.595Z,100.00
2022-11-05T09:25:15.129Z,100.00
2022-11-05T09:27:42.513Z,100.00
2022-11-05T09:30:10.182Z,100.00
2022-11-05T09:32:36.554Z,100.00
2022-11-05T09:35:03.150Z,99.51
2022-11-05T09:37:30.008Z,99.54
2022-11-05T09:39:56.504Z,98.66
2022-11-05T09:42:29.942Z,98.33
2022-11-05T09:45:03.680Z,97.51
2022-11-05T09:47:39.399Z,97.54
2022-11-05T09:50:16.780Z,95.73
2022-11-05T09:52:43.323Z,94.33
2022-11-05T09:55:37.766Z,94.39
2022-11-05T09:58:43.544Z,94.82
2022-11-05T10:01:15.893Z,94.25
2022-11-05T10:03:46.179Z,94.19
2022-11-05T10:06:20.934Z,93.10
2022-11-05T10:08:56.567Z,91.47
2022-11-05T10:11:38.760Z,90.36
2022-11-05T10:14:20.939Z,88.86
2022-11-05T10:17:00.658Z,87.80
2022-11-05T10:19:37.119Z,86.46
2022-11-05T10:22:12.302Z,85.55
2022-11-05T10:24:42.031Z,86.90
2022-11-05T10:27:32.499Z,84.77
2022-11-05T10:29:59.951Z,85.20
2022-11-05T10:32:39.176Z,85.51
2022-11-05T10:35:07.884Z,86.95
2022-11-05T10:37:40.500Z,84.88
2022-11-05T10:40:57.861Z,82.72
2022-11-05T10:43:50.982Z,82.99
2022-11-05T10:46:53.018Z,83.30
2022-11-05T10:49:42.915Z,82.79
2022-11-05T10:52:20.423Z,82.81
2022-11-05T10:54:47.631Z,80.43
2022-11-05T10:57:33.332Z,79.61
2022-11-05T11:00:18.118Z,79.47
2022-11-05T11:02:54.420Z,79.69
2022-11-05T11:05:28.737Z,79.10
2022-11-05T11:08:03.954Z,77.63
2022-11-05T11:10:38.836Z,75.16
2022-11-05T11:13:06.259Z,74.95
2022-11-05T11:15:32.719Z,75.63
2022-11-05T11:18:25.032Z,75.91
2022-11-05T11:20:51.493Z,71.33
2022-11-05T11:23:17.928Z,71.52
2022-11-05T11:26:00.580Z,69.54
2022-11-05T11:28:42.873Z,67.96
2022-11-05T11:31:15.638Z,67.01
2022-11-05T11:33:46.607Z,66.70
2022-11-05T11:36:18.531Z,65.14
2022-11-05T11:38:45.925Z,65.27
2022-11-05T11:41:30.432Z,65.97
2022-11-05T11:44:02.425Z,66.25
2022-11-05T11:46:32.934Z,65.19
2022-11-05T11:48:59.968Z,65.89
2022-11-05T11:51:49.511Z,66.34
2022-11-05T11:54:28.833Z,67.54
2022-11-05T11:56:55.801Z,68.21
2022-11-05T11:59:46.785Z,67.62
2022-11-05T12:02:43.095Z,67.63
2022-11-05T12:05:18.322Z,67.54
2022-11-05T12:07:57.889Z,67.52
2022-11-05T12:10:48.112Z,68.23
2022-11-05T12:13:23.221Z,68.49
2022-11-05T12:16:05.011Z,69.84
2022-11-05T12:18:52.756Z,68.84
2022-11-05T12:21:52.589Z,68.34
2022-11-05T12:25:06.066Z,68.78
2022-11-05T12:27:47.460Z,69.61
2022-11-05T12:30:16.963Z,69.97
2022-11-05T12:33:00.025Z,68.65
2022-11-05T12:35:47.368Z,69.18
2022-11-05T12:38:30.735Z,66.93
2022-11-05T12:41:08.950Z,64.88
2022-11-05T12:43:43.709Z,63.66
2022-11-05T12:46:38.518Z,64.19
2022-11-05T12:49:23.404Z,62.78
2022-11-05T12:52:01.883Z,62.83
2022-11-05T12:54:56.024Z,63.89
2022-11-05T12:57:23.339Z,64.07
2022-11-05T13:00:07.757Z,64.82
2022-11-05T13:02:45.038Z,65.53
2022-11-05T13:05:19.890Z,63.92
2022-11-05T13:08:10.709Z,65.30
2022-11-05T13:10:44.720Z,65.61
2022-11-05T13:13:31.092Z,65.44
2022-11-05T13:16:04.791Z,66.01
2022-11-05T13:18:45.465Z,67.02
2022-11-05T13:21:13.010Z,67.00
2022-11-05T13:24:03.858Z,67.08
2022-11-05T13:26:50.284Z,67.77
2022-11-05T13:29:43.483Z,67.41
2022-11-05T13:32:30.403Z,67.82
2022-11-05T13:34:59.392Z,67.58
2022-11-05T13:37:51.609Z,68.05
2022-11-05T13:40:24.869Z,66.97
2022-11-05T13:43:12.518Z,67.64
2022-11-05T13:46:07.449Z,68.08
2022-11-05T13:48:54.517Z,67.19
2022-11-05T13:51:37.708Z,67.65
2022-11-05T13:54:33.597Z,66.69
2022-11-05T13:57:12.164Z,67.01
2022-11-05T14:00:03.626Z,67.54
2022-11-05T14:02:41.510Z,67.79
2022-11-05T14:05:22.394Z,68.51
2022-11-05T14:07:49.472Z,67.54
2022-11-05T14:10:39.372Z,65.36
2022-11-05T14:13:25.669Z,66.06
2022-11-05T14:15:56.717Z,66.43
2022-11-05T14:18:39.412Z,65.67
2022-11-05T14:21:27.112Z,65.85
2022-11-05T14:23:58.191Z,65.98
2022-11-05T14:26:33.058Z,66.17
2022-11-05T14:29:02.429Z,67.10
2022-11-05T14:34:55.237Z,67.00
2022-11-05T14:37:36.729Z,66.78
2022-11-05T14:40:29.389Z,66.63
2022-11-05T14:43:16.190Z,66.94
2022-11-05T14:45:55.870Z,67.06
2022-11-05T14:48:40.288Z,67.40
2022-11-05T14:51:30.030Z,68.03
2022-11-05T14:54:13.250Z,68.31
2022-11-05T14:56:56.500Z,67.99
2022-11-05T14:59:28.058Z,67.98
2022-11-05T15:01:58.808Z,67.95
2022-11-05T15:04:36.507Z,67.97
2022-11-05T15:07:03.209Z,67.93
2022-11-05T15:09:41.727Z,67.92
2022-11-05T15:12:22.524Z,68.69
2022-11-05T15:14:57.834Z,68.32
2022-11-05T15:17:30.243Z,68.16
2022-11-05T15:20:09.455Z,68.06
2022-11-05T15:22:42.109Z,68.29
2022-11-05T15:25:27.000Z,68.82
2022-11-05T15:28:07.804Z,68.82
2022-11-05T15:30:34.316Z,69.30
2022-11-05T15:33:30.819Z,68.75
2022-11-05T15:36:09.960Z,68.79
2022-11-05T15:38:36.355Z,68.67
2022-11-05T15:41:33.559Z,68.86
2022-11-05T15:44:00.947Z,69.01
2022-11-05T15:46:28.767Z,69.03
2022-11-05T15:49:03.525Z,69.14
2022-11-05T15:51:30.139Z,68.50
2022-11-05T15:54:24.292Z,68.95
2022-11-05T15:56:51.832Z,69.41
2022-11-05T15:59:24.022Z,69.43
2022-11-05T16:02:14.080Z,69.49
2022-11-05T16:04:47.161Z,69.89
2022-11-05T16:07:14.230Z,70.21
2022-11-05T16:09:46.042Z,69.88
2022-11-05T16:12:18.617Z,70.23
2022-11-05T16:14:55.804Z,70.66
2022-11-05T16:17:24.127Z,70.97
2022-11-05T16:19:51.697Z,71.00
2022-11-05T16:22:18.416Z,71.16
2022-11-05T16:24:45.871Z,71.47
2022-11-05T16:27:19.888Z,71.49
2022-11-05T16:29:52.805Z,71.72
2022-11-05T16:32:28.365Z,71.98
2022-11-05T16:35:02.371Z,72.29
2022-11-05T16:37:35.347Z,72.08
2022-11-05T16:40:03.553Z,72.33
2022-11-05T16:42:32.926Z,72.29
2022-11-05T16:44:59.310Z,72.50
2022-11-05T16:47:26.300Z,72.56
2022-11-05T16:49:52.715Z,72.87
2022-11-05T16:52:19.199Z,73.22
2022-11-05T16:54:45.657Z,73.39
2022-11-05T16:57:25.394Z,73.39
2022-11-05T16:59:52.932Z,73.64
2022-11-05T17:02:19.629Z,73.91
2022-11-05T17:04:46.570Z,73.50
2022-11-05T17:07:12.965Z,73.13
2022-11-05T17:09:39.424Z,73.42
2022-11-05T17:12:05.908Z,73.61
2022-11-05T17:14:32.393Z,73.76
2022-11-05T17:17:02.077Z,73.77
2022-11-05T17:19:28.515Z,73.88
2022-11-05T17:21:55.159Z,74.19
2022-11-05T17:24:21.882Z,73.69
2022-11-05T17:26:48.635Z,74.23
2022-11-05T17:29:15.249Z,74.15
2022-11-05T17:31:42.159Z,74.42
2022-11-05T17:34:10.205Z,74.93
2022-11-05T17:36:36.570Z,75.13
2022-11-05T17:39:03.130Z,75.57
2022-11-05T17:41:29.598Z,75.84
2022-11-05T17:43:57.379Z,76.24
2022-11-05T17:46:24.235Z,76.18
2022-11-05T17:48:51.371Z,76.20
2022-11-05T17:51:19.015Z,76.28
2022-11-05T17:53:48.359Z,76.34
2022-11-05T17:56:28.952Z,76.50
2022-11-05T17:59:00.604Z,76.43
2022-11-05T18:01:33.196Z,76.33
2022-11-05T18:04:05.444Z,76.54
2022-11-05T18:06:34.695Z,76.50
2022-11-05T18:09:01.070Z,76.73
2022-11-05T18:11:27.463Z,77.07
2022-11-05T18:13:53.878Z,77.22
2022-11-05T18:16:20.257Z,77.32
2022-11-05T18:18:47.991Z,77.72
2022-11-05T18:21:14.574Z,77.89
2022-11-05T18:23:41.383Z,78.19
2022-11-05T18:26:09.490Z,78.20
2022-11-05T18:28:36.581Z,78.67
2022-11-05T18:31:03.864Z,78.77
2022-11-05T18:33:31.248Z,78.93
2022-11-05T18:35:57.666Z,78.74
2022-11-05T18:38:24.040Z,79.17
2022-11-05T18:40:50.427Z,79.12
2022-11-05T18:43:16.776Z,79.59
2022-11-05T18:45:43.161Z,79.49
2022-11-05T18:48:10.157Z,79.99
2022-11-05T18:50:39.826Z,80.15
2022-11-05T18:53:06.220Z,80.16
2022-11-05T18:55:32.572Z,80.41
2022-11-05T18:57:58.988Z,80.62
2022-11-05T19:00:25.455Z,80.64
2022-11-05T19:02:52.031Z,80.86
2022-11-05T19:05:33.957Z,80.96
2022-11-05T19:08:00.644Z,81.32
2022-11-05T19:10:28.368Z,81.26
2022-11-05T19:12:54.892Z,81.46
2022-11-05T19:15:21.402Z,81.43
2022-11-05T19:17:47.845Z,81.73
2022-11-05T19:20:14.236Z,81.56
2022-11-05T19:22:40.612Z,81.84
2022-11-05T19:25:07.563Z,82.08
2022-11-05T19:27:35.415Z,82.21
2022-11-05T19:30:02.213Z,82.39
2022-11-05T19:32:28.602Z,82.29
2022-11-05T19:34:54.970Z,82.29
2022-11-05T19:37:21.354Z,82.44
2022-11-05T19:39:47.779Z,82.81
2022-11-05T19:42:14.200Z,82.97
2022-11-05T19:44:40.740Z,82.89
2022-11-05T19:47:07.121Z,83.16
2022-11-05T19:49:33.494Z,83.36
2022-11-05T19:51:59.907Z,83.52
2022-11-05T19:54:26.328Z,83.34
2022-11-05T19:56:52.783Z,83.91
2022-11-05T19:59:19.309Z,84.30
2022-11-05T20:01:45.793Z,84.44
2022-11-05T20:04:12.387Z,84.56
2022-11-05T20:06:39.981Z,84.68
2022-11-05T20:09:27.120Z,84.66
2022-11-05T20:11:56.052Z,84.75
2022-11-05T20:14:23.483Z,84.86
2022-11-05T20:16:50.370Z,84.97
2022-11-05T20:19:19.388Z,84.97
2022-11-05T20:21:46.070Z,84.87
2022-11-05T20:24:20.329Z,84.78
2022-11-05T20:26:50.007Z,84.67
2022-11-05T20:29:16.438Z,84.64
2022-11-05T20:31:42.832Z,84.49
2022-11-05T20:34:09.182Z,84.44
2022-11-05T20:36:35.635Z,84.31
2022-11-05T20:39:02.814Z,84.16
2022-11-05T20:41:30.529Z,84.09
2022-11-05T20:43:56.957Z,84.23
2022-11-05T20:46:23.667Z,84.33
2022-11-05T20:48:50.475Z,84.44
2022-11-05T20:51:19.592Z,84.74
2022-11-05T20:53:46.671Z,84.55
2022-11-05T20:56:22.526Z,84.89
2022-11-05T20:58:49.847Z,84.66
2022-11-05T21:01:17.650Z,84.44
2022-11-05T21:03:45.431Z,84.51
2022-11-05T21:06:13.060Z,84.29
2022-11-05T21:08:40.262Z,84.15
2022-11-05T21:11:07.397Z,84.25
2022-11-05T21:13:34.323Z,84.22
2022-11-05T21:16:01.253Z,84.04
2022-11-05T21:18:30.180Z,83.97
2022-11-05T21:20:57.493Z,83.79
2022-11-05T21:23:23.907Z,83.42
2022-11-05T21:25:50.385Z,83.08
2022-11-05T21:28:18.818Z,83.11
2022-11-05T21:30:47.222Z,82.50
2022-11-05T21:33:15.467Z,82.32
2022-11-05T21:35:44.046Z,82.17
2022-11-05T21:38:11.952Z,81.89
2022-11-05T21:40:39.319Z,81.64
2022-11-05T21:43:05.841Z,81.36
2022-11-05T21:45:32.430Z,81.37
2022-11-05T21:47:58.835Z,81.49
2022-11-05T21:50:44.497Z,81.51
2022-11-05T21:53:33.826Z,81.43
2022-11-05T21:56:19.475Z,81.47
2022-11-05T21:59:04.371Z,81.49
2022-11-05T22:01:31.618Z,81.40
2022-11-05T22:04:02.917Z,81.42
2022-11-05T22:06:32.639Z,81.44
2022-11-05T22:08:59.219Z,81.40
2022-11-05T22:11:25.768Z,81.58
2022-11-05T22:13:52.926Z,81.39
2022-11-05T22:16:19.426Z,81.51
2022-11-05T22:18:46.003Z,81.74
2022-11-05T22:21:17.305Z,81.64
2022-11-05T22:23:43.664Z,81.68
2022-11-05T22:26:10.332Z,81.57
2022-11-05T22:28:36.698Z,81.31
2022-11-05T22:31:03.067Z,81.27
2022-11-05T22:33:30.817Z,81.03
2022-11-05T22:35:57.179Z,80.94
2022-11-05T22:38:23.547Z,80.67
2022-11-05T22:40:49.913Z,80.67
2022-11-05T22:43:16.282Z,80.69
2022-11-05T22:45:43.715Z,80.63
2022-11-05T22:48:10.528Z,80.47
2022-11-05T22:50:37.167Z,80.47
2022-11-05T22:53:03.602Z,80.47
2022-11-05T22:55:29.958Z,80.58
2022-11-05T22:57:56.340Z,80.59
2022-11-05T23:00:34.533Z,80.48
2022-11-05T23:03:02.650Z,80.69
2022-11-05T23:05:29.296Z,80.67
2022-11-05T23:08:14.600Z,80.63
2022-11-05T23:10:59.683Z,80.77
2022-11-05T23:13:26.113Z,80.86
2022-11-05T23:16:10.977Z,80.98
2022-11-05T23:18:55.752Z,81.09
2022-11-05T23:21:40.660Z,81.27
2022-11-05T23:24:07.172Z,81.57
2022-11-05T23:26:50.295Z,81.57
2022-11-05T23:29:21.368Z,81.64
2022-11-05T23:32:07.030Z,81.80
2022-11-05T23:34:33.608Z,81.82
2022-11-05T23:37:18.741Z,82.10
2022-11-05T23:39:45.156Z,82.37
2022-11-05T23:42:30.549Z,82.46
2022-11-05T23:45:15.828Z,82.80
2022-11-05T23:48:01.367Z,82.68
2022-11-05T23:50:29.335Z,83.03
2022-11-05T23:52:55.723Z,83.34
2022-11-05T23:55:23.174Z,83.23
2022-11-05T23:57:49.948Z,83.40
